Time;durP1;ratioP1;P1;durP2;ratioP2;P2;SDS_P1;SDS_P2;PMS_P1;PMS_P2;Temp;Humidity;BMP_temperature;BMP_pressure;BME280_temperature;BME280_humidity;BME280_pressure;Samples;Min_cycle;Max_cycle;Signal;HPM_P1;HPM_P2
2021/09/01 00:00:06;;;;;;;;;;;;;;;;;;5015507;28;20007;-67
2021/09/01 00:02:33;;;;;;;;;;;;;;;;;;5015430;28;20019;-71
2021/09/01 00:05:00;;;;;;;;;;;;;;;;;;5015126;28;20009;-67
2021/09/01 00:07:26;;;;;;;;;;;;;;;;;;5015335;28;20002;-72
2021/09/01 00:09:53;;;;;;;;;;;;;;;;;;5015049;28;20252;-74
2021/09/01 00:12:20;;;;;;;;;;;;;;;;;;5014697;28;20018;-71
2021/09/01 00:14:47;;;;;;;;;;;;;;;;;;5015313;28;20002;-69
2021/09/01 00:17:14;;;;;;;;;;;;;;;;;;5014688;28;20003;-73
2021/09/01 00:19:41;;;;;;;;;;;;;;;;;;5015057;28;20373;-69
2021/09/01 00:22:08;;;;;;;;;;;;;;;;;;5014723;28;20019;-67
2021/09/01 00:24:35;;;;;;;;;;;;;;;;;;5014628;28;20013;-73
2021/09/01 00:27:02;;;;;;;;;;;;;;;;;;5014438;28;20465;-69
2021/09/01 00:29:29;;;;;;;;;;;;;;;;;;5014995;28;20014;-70
2021/09/01 00:31:56;;;;;;;;;;;;;;;;;;5013257;28;20022;-71
2021/09/01 00:34:23;;;;;;;;;;;;;;;;;;5014652;28;20002;-70
2021/09/01 00:36:50;;;;;;;;;;;;;;;;;;5014436;28;20018;-73
2021/09/01 00:39:17;;;;;;;;;;;;;;;;;;5014360;28;20018;-73
2021/09/01 00:41:43;;;;;;;;;;;;;;;;;;5014147;28;20002;-68
2021/09/01 00:44:10;;;;;;;;;;;;;;;;;;5014758;28;20002;-68
2021/09/01 00:46:37;;;;;;;;;;;;;;;;;;5014459;28;20025;-68
2021/09/01 00:49:04;;;;;;;;;;;;;;;;;;5014960;28;20002;-74
2021/09/01 00:51:31;;;;;;;;;;;;;;;;;;5013835;28;20002;-66
2021/09/01 00:53:58;;;;;;;;;;;;;;;;;;5014354;28;20002;-72
2021/09/01 00:56:25;;;;;;;;;;;;;;;;;;5014291;28;20009;-68
2021/09/01 00:58:52;;;;;;;;;;;;;;;;;;5014336;28;20018;-73
2021/09/01 01:01:19;;;;;;;;;;;;;;;;;;5014128;28;20201;-73
2021/09/01 01:03:46;;;;;;;;;;;;;;;;;;5014011;28;20041;-68
2021/09/01 01:06:13;;;;;;;;;;;;;;;;;;5013903;28;20048;-71
2021/09/01 01:08:40;;;;;;;;;;;;;;;;;;5013877;28;20002;-72
2021/09/01 01:11:07;;;;;;;;;;;;;;;;;;5013959;28;20002;-68
2021/09/01 01:13:35;;;;;;;;;;;;;;;;;;5013743;28;20030;-71
2021/09/01 01:16:02;;;;;;;;;;;;;;;;;;5013992;28;20009;-68
2021/09/01 01:18:29;;;;;;;;;;;;;;;;;;5013370;28;20014;-68
2021/09/01 01:20:56;;;;;;;;;;;;;;;;;;5013647;28;20006;-70
2021/09/01 01:23:23;;;;;;;;;;;;;;;;;;5013804;28;20073;-71
2021/09/01 01:25:49;;;;;;;;;;;;;;;;;;5013831;28;20006;-67
2021/09/01 01:28:16;;;;;;;;;;;;;;;;;;5013360;28;20002;-68
2021/09/01 01:30:43;;;;;;;;;;;;;;;;;;5013582;28;20009;-66
2021/09/01 01:33:10;;;;;;;;;;;;;;;;;;5013741;28;20026;-68
2021/09/01 01:35:37;;;;;;;;;;;;;;;;;;5014607;28;20442;-72
2021/09/01 01:38:04;;;;;;;;;;;;;;;;;;5014457;28;20061;-68
2021/09/01 01:40:31;;;;;;;;;;;;;;;;;;5013396;28;20002;-70
2021/09/01 01:42:58;;;;;;;;;;;;;;;;;;5013130;28;20019;-68
2021/09/01 01:45:25;;;;;;;;;;;;;;;;;;5013445;28;20002;-70
2021/09/01 01:47:52;;;;;;;;;;;;;;;;;;5013304;28;20010;-66
2021/09/01 01:50:19;;;;;;;;;;;;;;;;;;5013296;28;20025;-73
2021/09/01 01:52:46;;;;;;;;;;;;;;;;;;5013176;28;20018;-66
2021/09/01 01:55:12;;;;;;;;;;;;;;;;;;5013359;28;20002;-70
2021/09/01 01:57:39;;;;;;;;;;;;;;;;;;5012931;28;20009;-69
2021/09/01 02:00:06;;;;;;;;;;;;;;;;;;5013341;28;20377;-68
2021/09/01 02:02:33;;;;;;;;;;;;;;;;;;5012438;28;20025;-69
2021/09/01 02:05:00;;;;;;;;;;;;;;;;;;5013232;28;20006;-66
2021/09/01 02:07:27;;;;;;;;;;;;;;;;;;5013190;28;20085;-68
2021/09/01 02:09:54;;;;;;;;;;;;;;;;;;5013316;28;20002;-69
2021/09/01 02:12:21;;;;;;;;;;;;;;;;;;5012416;28;20019;-70
2021/09/01 02:14:48;;;;;;;;;;;;;;;;;;5013798;28;20445;-70
2021/09/01 02:17:15;;;;;;;;;;;;;;;;;;5014572;28;20013;-71
2021/09/01 02:19:42;;;;;;;;;;;;;;;;;;5014896;28;20018;-68
2021/09/01 02:22:08;;;;;;;;;;;;;;;;;;5012625;28;20367;-69
2021/09/01 02:24:35;;;;;;;;;;;;;;;;;;5012931;28;20006;-69
2021/09/01 02:27:02;;;;;;;;;;;;;;;;;;5012664;28;20010;-67
2021/09/01 02:29:29;;;;;;;;;;;;;;;;;;5012952;28;20394;-68
2021/09/01 02:31:56;;;;;;;;;;;;;;;;;;5012610;28;20022;-68
2021/09/01 02:34:23;;;;;;;;;;;;;;;;;;5012757;28;20002;-71
2021/09/01 02:36:50;;;;;;;;;;;;;;;;;;5012455;28;20002;-71
2021/09/01 02:39:17;;;;;;;;;;;;;;;;;;5012509;28;20018;-69
2021/09/01 02:41:44;;;;;;;;;;;;;;;;;;5012191;28;20002;-68
2021/09/01 02:44:11;;;;;;;;;;;;;;;;;;5012574;28;20386;-66
2021/09/01 02:46:38;;;;;;;;;;;;;;;;;;5012754;28;20009;-67
2021/09/01 02:49:04;;;;;;;;;;;;;;;;;;5012666;28;20009;-70
2021/09/01 02:51:31;;;;;;;;;;;;;;;;;;5012158;28;20355;-66
2021/09/01 02:53:58;;;;;;;;;;;;;;;;;;5013364;28;20003;-68
2021/09/01 02:56:25;;;;;;;;;;;;;;;;;;5016860;28;20002;-70
2021/09/01 02:58:52;;;;;;;;;;;;;;;;;;5016283;28;20025;-69
2021/09/01 03:01:19;;;;;;;;;;;;;;;;;;5016483;28;20009;-67
2021/09/01 03:03:46;;;;;;;;;;;;;;;;;;5016386;28;20024;-69
2021/09/01 03:06:13;;;;;;;;;;;;;;;;;;5016215;28;20002;-68
2021/09/01 03:08:40;;;;;;;;;;;;;;;;;;5016196;28;20009;-68
2021/09/01 03:11:07;;;;;;;;;;;;;;;;;;5015934;28;20010;-69
2021/09/01 03:13:34;;;;;;;;;;;;;;;;;;5015939;28;20394;-69
2021/09/01 03:16:01;;;;;;;;;;;;;;;;;;5016139;28;20006;-70
2021/09/01 03:18:28;;;;;;;;;;;;;;;;;;5016117;28;20014;-68
2021/09/01 03:20:54;;;;;;;;;;;;;;;;;;5016070;28;20377;-71
2021/09/01 03:23:21;;;;;;;;;;;;;;;;;;5015951;28;20022;-69
2021/09/01 03:25:48;;;;;;;;;;;;;;;;;;5015779;28;20009;-69
2021/09/01 03:28:15;;;;;;;;;;;;;;;;;;5015840;28;20457;-66
2021/09/01 03:30:42;;;;;;;;;;;;;;;;;;5015914;28;20002;-69
2021/09/01 03:33:09;;;;;;;;;;;;;;;;;;5015502;28;20029;-71
2021/09/01 03:35:36;;;;;;;;;;;;;;;;;;5015860;28;20477;-67
2021/09/01 03:38:03;;;;;;;;;;;;;;;;;;5015559;28;20009;-68
2021/09/01 03:40:30;;;;;;;;;;;;;;;;;;5015520;28;20013;-69
2021/09/01 03:42:57;;;;;;;;;;;;;;;;;;5015638;28;20390;-69
2021/09/01 03:45:24;;;;;;;;;;;;;;;;;;5015932;28;20009;-68
2021/09/01 03:47:50;;;;;;;;;;;;;;;;;;5015449;28;20006;-70
2021/09/01 03:50:17;;;;;;;;;;;;;;;;;;5015136;28;20003;-72
2021/09/01 03:52:44;;;;;;;;;;;;;;;;;;5015520;28;20501;-67
2021/09/01 03:55:11;;;;;;;;;;;;;;;;;;5015621;28;20009;-70
2021/09/01 03:57:38;;;;;;;;;;;;;;;;;;5015211;28;20373;-72
2021/09/01 04:00:05;;;;;;;;;;;;;;;;;;5015515;28;20448;-70
2021/09/01 04:02:32;;;;;;;;;;;;;;;;;;5015444;28;20029;-70
2021/09/01 04:04:59;;;;;;;;;;;;;;;;;;5015123;28;20002;-66
2021/09/01 04:07:26;;;;;;;;;;;;;;;;;;5015144;28;20369;-68
2021/09/01 04:09:53;;;;;;;;;;;;;;;;;;5015464;28;20009;-67
2021/09/01 04:12:20;;;;;;;;;;;;;;;;;;5015473;28;20019;-69
2021/09/01 04:14:47;;;;;;;;;;;;;;;;;;5015667;28;20450;-67
2021/09/01 04:17:14;;;;;;;;;;;;;;;;;;5015185;28;20009;-71
2021/09/01 04:19:41;;;;;;;;;;;;;;;;;;5015614;28;20013;-69
2021/09/01 04:22:07;;;;;;;;;;;;;;;;;;5015236;28;20025;-67
2021/09/01 04:24:34;;;;;;;;;;;;;;;;;;5015654;28;20002;-69
2021/09/01 04:27:02;;;;;;;;;;;;;;;;;;5015541;28;20097;-69
2021/09/01 04:29:29;;;;;;;;;;;;;;;;;;5015220;28;20002;-68
2021/09/01 04:31:56;;;;;;;;;;;;;;;;;;5014833;28;20023;-69
2021/09/01 04:34:23;;;;;;;;;;;;;;;;;;5015334;28;20002;-66
2021/09/01 04:36:50;;;;;;;;;;;;;;;;;;5015729;28;20405;-69
2021/09/01 04:39:17;;;;;;;;;;;;;;;;;;5015104;28;20298;-69
2021/09/01 04:41:44;;;;;;;;;;;;;;;;;;5015187;28;20002;-67
2021/09/01 04:44:11;;;;;;;;;;;;;;;;;;5014950;28;20489;-73
2021/09/01 04:46:38;;;;;;;;;;;;;;;;;;5014903;28;20002;-67
2021/09/01 04:49:04;;;;;;;;;;;;;;;;;;5014843;28;20025;-67
2021/09/01 04:51:31;;;;;;;;;;;;;;;;;;5014828;28;20002;-67
2021/09/01 04:53:58;;;;;;;;;;;;;;;;;;5014977;28;20002;-70
2021/09/01 04:56:25;;;;;;;;;;;;;;;;;;5014583;28;20355;-69
2021/09/01 04:58:52;;;;;;;;;;;;;;;;;;5014753;28;20556;-67
2021/09/01 05:01:19;;;;;;;;;;;;;;;;;;5014729;28;20008;-69
2021/09/01 05:03:46;;;;;;;;;;;;;;;;;;5014368;28;20437;-69
2021/09/01 05:06:13;;;;;;;;;;;;;;;;;;5015139;28;20003;-70
2021/09/01 05:08:40;;;;;;;;;;;;;;;;;;5014691;28;20189;-68
2021/09/01 05:11:07;;;;;;;;;;;;;;;;;;5014523;28;20002;-70
2021/09/01 05:13:34;;;;;;;;;;;;;;;;;;5014737;28;20025;-69
2021/09/01 05:16:01;;;;;;;;;;;;;;;;;;5014643;28;20009;-71
2021/09/01 05:18:28;;;;;;;;;;;;;;;;;;5013654;28;20002;-69
2021/09/01 05:20:54;;;;;;;;;;;;;;;;;;5014304;28;20009;-70
2021/09/01 05:23:21;;;;;;;;;;;;;;;;;;5014498;28;20019;-70
2021/09/01 05:25:48;;;;;;;;;;;;;;;;;;5014408;28;20002;-67
2021/09/01 05:28:15;;;;;;;;;;;;;;;;;;5014148;28;20002;-67
2021/09/01 05:30:42;;;;;;;;;;;;;;;;;;5014159;28;20002;-67
2021/09/01 05:33:09;;;;;;;;;;;;;;;;;;5029680;23;20033;-65
2021/09/01 05:35:36;;;;;;;;;;;;;;;;;;4992186;28;20470;-67
2021/09/01 05:38:03;;;;;;;;;;;;;;;;;;4994332;28;20005;-66
2021/09/01 05:40:30;;;;;;;;;;;;;;;;;;4993646;28;20018;-65
2021/09/01 05:42:57;;;;;;;;;;;;;;;;;;4995175;28;20022;-66
2021/09/01 05:45:24;;;;;;;;;;;;;;;;;;4993623;28;20484;-66
2021/09/01 05:47:51;;;;;;;;;;;;;;;;;;4993828;28;20006;-66
2021/09/01 05:50:19;;;;;;;;;;;;;;;;;;4993964;28;20003;-66
2021/09/01 05:52:46;;;;;;;;;;;;;;;;;;4993807;28;20019;-66
2021/09/01 05:55:13;;;;;;;;;;;;;;;;;;4993604;28;20002;-67
2021/09/01 05:57:40;;;;;;;;;;;;;;;;;;4993562;28;20002;-67
2021/09/01 06:00:07;;;;;;;;;;;;;;;;;;4993588;28;20045;-66
2021/09/01 06:02:34;;;;;;;;;;;;;;;;;;4994042;28;20385;-66
2021/09/01 06:05:02;;;;;;;;;;;;;;;;;;4993969;28;20090;-66
2021/09/01 06:07:29;;;;;;;;;;;;;;;;;;4993206;28;20033;-67
2021/09/01 06:09:56;;;;;;;;;;;;;;;;;;4993417;28;20003;-66
2021/09/01 06:12:23;;;;;;;;;;;;;;;;;;4993274;28;20002;-66
2021/09/01 06:14:50;;;;;;;;;;;;;;;;;;4993526;28;20012;-66
2021/09/01 06:17:17;;;;;;;;;;;;;;;;;;4993380;28;20006;-65
2021/09/01 06:19:43;;;;;;;;;;;;;;;;;;4993282;28;20481;-66
2021/09/01 06:22:10;;;;;;;;;;;;;;;;;;4992851;28;20009;-66
2021/09/01 06:24:37;;;;;;;;;;;;;;;;;;4993429;28;20074;-66
2021/09/01 06:27:04;;;;;;;;;;;;;;;;;;4993438;28;20009;-66
2021/09/01 06:29:31;;;;;;;;;;;;;;;;;;4992664;28;20161;-66
2021/09/01 06:31:58;;;;;;;;;;;;;;;;;;4992940;28;20009;-65
2021/09/01 06:34:25;;;;;;;;;;;;;;;;;;4992744;28;20023;-66
2021/09/01 06:36:52;;;;;;;;;;;;;;;;;;4993175;28;20025;-67
2021/09/01 06:39:19;;;;;;;;;;;;;;;;;;4992906;28;20021;-65
2021/09/01 06:41:46;;;;;;;;;;;;;;;;;;4992751;28;20006;-67
2021/09/01 06:44:13;;;;;;;;;;;;;;;;;;4992882;28;20371;-66
2021/09/01 06:46:40;;;;;;;;;;;;;;;;;;4993030;28;20260;-66
2021/09/01 06:49:07;;;;;;;;;;;;;;;;;;4993040;28;20007;-66
2021/09/01 06:51:34;;;;;;;;;;;;;;;;;;4992927;28;20009;-67
2021/09/01 06:54:01;;;;;;;;;;;;;;;;;;4993133;28;20023;-66
2021/09/01 06:56:28;;;;;;;;;;;;;;;;;;4992612;28;20374;-67
2021/09/01 06:58:55;;;;;;;;;;;;;;;;;;4992617;28;20006;-66
2021/09/01 07:01:22;;;;;;;;;;;;;;;;;;4992878;28;20003;-66
2021/09/01 07:03:50;;;;;;;;;;;;;;;;;;4992527;28;20394;-66
2021/09/01 07:06:17;;;;;;;;;;;;;;;;;;4992982;28;20017;-65
2021/09/01 07:08:44;;;;;;;;;;;;;;;;;;4992210;28;20021;-66
2021/09/01 07:11:11;;;;;;;;;;;;;;;;;;4992654;28;20009;-66
2021/09/01 07:13:38;;;;;;;;;;;;;;;;;;4992712;28;20019;-66
2021/09/01 07:16:06;;;;;;;;;;;;;;;;;;4993070;28;20003;-66
2021/09/01 07:18:33;;;;;;;;;;;;;;;;;;4993002;28;20485;-66
2021/09/01 07:21:00;;;;;;;;;;;;;;;;;;4993038;28;20018;-65
2021/09/01 07:23:27;;;;;;;;;;;;;;;;;;4992544;28;20044;-68
2021/09/01 07:25:54;;;;;;;;;;;;;;;;;;4992398;28;20003;-68
2021/09/01 07:28:20;;;;;;;;;;;;;;;;;;4992691;28;20002;-68
2021/09/01 07:30:47;;;;;;;;;;;;;;;;;;4993088;28;20478;-66
2021/09/01 07:33:14;;;;;;;;;;;;;;;;;;4992935;28;20030;-66
2021/09/01 07:35:41;;;;;;;;;;;;;;;;;;4993071;28;20002;-66
2021/09/01 07:38:08;;;;;;;;;;;;;;;;;;4992620;28;20529;-66
2021/09/01 07:40:35;;;;;;;;;;;;;;;;;;4994847;28;20026;-67
2021/09/01 07:43:02;;;;;;;;;;;;;;;;;;4996506;28;20025;-66
2021/09/01 07:45:30;;;;;;;;;;;;;;;;;;4996593;28;20002;-67
2021/09/01 07:47:57;;;;;;;;;;;;;;;;;;4996580;28;20006;-67
2021/09/01 07:50:24;;;;;;;;;;;;;;;;;;4996195;28;20130;-66
2021/09/01 07:52:51;;;;;;;;;;;;;;;;;;4996387;28;20029;-66
2021/09/01 07:55:18;;;;;;;;;;;;;;;;;;4996803;28;20013;-66
2021/09/01 07:57:45;;;;;;;;;;;;;;;;;;4996705;28;20081;-66
2021/09/01 08:00:12;;;;;;;;;;;;;;;;;;4996200;28;20021;-66
2021/09/01 08:02:39;;;;;;;;;;;;;;;;;;4996270;28;20018;-66
2021/09/01 08:05:05;;;;;;;;;;;;;;;;;;4996406;28;20013;-66
2021/09/01 08:07:32;;;;;;;;;;;;;;;;;;4996757;28;20007;-66
2021/09/01 08:09:59;;;;;;;;;;;;;;;;;;4996393;28;20010;-69
2021/09/01 08:12:26;;;;;;;;;;;;;;;;;;4995811;28;20006;-66
2021/09/01 08:14:53;;;;;;;;;;;;;;;;;;4996266;28;20473;-66
2021/09/01 08:17:20;;;;;;;;;;;;;;;;;;4995822;28;20018;-66
2021/09/01 08:19:47;;;;;;;;;;;;;;;;;;4996027;28;20060;-66
2021/09/01 08:22:14;;;;;;;;;;;;;;;;;;4996033;28;20002;-67
2021/09/01 08:24:41;;;;;;;;;;;;;;;;;;4996770;28;20002;-66
2021/09/01 08:27:08;;;;;;;;;;;;;;;;;;4995642;28;20033;-68
2021/09/01 08:29:35;;;;;;;;;;;;;;;;;;4995384;28;20003;-68
2021/09/01 08:32:01;;;;;;;;;;;;;;;;;;4995161;28;20002;-68
2021/09/01 08:34:28;;;;;;;;;;;;;;;;;;4994926;28;20387;-68
2021/09/01 08:36:56;;;;;;;;;;;;;;;;;;4995390;28;20002;-68
2021/09/01 08:39:23;;;;;;;;;;;;;;;;;;4995100;28;20006;-68
2021/09/01 08:41:49;;;;;;;;;;;;;;;;;;4995049;28;20002;-68
2021/09/01 08:44:16;;;;;;;;;;;;;;;;;;4995046;28;20018;-68
2021/09/01 08:46:43;;;;;;;;;;;;;;;;;;4994586;28;20454;-68
2021/09/01 08:49:10;;;;;;;;;;;;;;;;;;4994945;28;20003;-70
2021/09/01 08:51:37;;;;;;;;;;;;;;;;;;4993715;28;20197;-68
2021/09/01 08:54:04;;;;;;;;;;;;;;;;;;4994756;28;20030;-68
2021/09/01 08:56:31;;;;;;;;;;;;;;;;;;4994570;28;20009;-68
2021/09/01 08:58:58;;;;;;;;;;;;;;;;;;4994784;28;20006;-68
2021/09/01 09:01:25;;;;;;;;;;;;;;;;;;4994266;28;20052;-68
2021/09/01 09:03:52;;;;;;;;;;;;;;;;;;4994349;28;20025;-68
2021/09/01 09:06:19;;;;;;;;;;;;;;;;;;4994623;28;20022;-69
2021/09/01 09:08:45;;;;;;;;;;;;;;;;;;4994332;28;20009;-68
2021/09/01 09:11:12;;;;;;;;;;;;;;;;;;4994216;28;20002;-68
2021/09/01 09:13:39;;;;;;;;;;;;;;;;;;4993917;28;20530;-68
2021/09/01 09:16:07;;;;;;;;;;;;;;;;;;4994481;28;20010;-68
2021/09/01 09:18:34;;;;;;;;;;;;;;;;;;4994658;28;20097;-68
2021/09/01 09:21:01;;;;;;;;;;;;;;;;;;4994022;28;20018;-69
2021/09/01 09:23:28;;;;;;;;;;;;;;;;;;4994268;28;20022;-68
2021/09/01 09:25:55;;;;;;;;;;;;;;;;;;4994058;28;20144;-68
2021/09/01 09:28:22;;;;;;;;;;;;;;;;;;4994398;28;20003;-69
2021/09/01 09:30:49;;;;;;;;;;;;;;;;;;4993985;28;20014;-68
2021/09/01 09:33:15;;;;;;;;;;;;;;;;;;4993623;28;20382;-69
2021/09/01 09:35:42;;;;;;;;;;;;;;;;;;4994132;28;20009;-68
2021/09/01 09:38:09;;;;;;;;;;;;;;;;;;4993648;28;20003;-67
2021/09/01 09:40:36;;;;;;;;;;;;;;;;;;4994112;28;20026;-67
2021/09/01 09:43:03;;;;;;;;;;;;;;;;;;4993824;28;20227;-68
2021/09/01 09:45:30;;;;;;;;;;;;;;;;;;4994284;28;20002;-66
2021/09/01 09:47:57;;;;;;;;;;;;;;;;;;4993689;28;20002;-69
2021/09/01 09:50:24;;;;;;;;;;;;;;;;;;4993440;28;20026;-67
2021/09/01 09:52:51;;;;;;;;;;;;;;;;;;4993425;28;20029;-67
2021/09/01 09:55:18;;;;;;;;;;;;;;;;;;4993747;28;20006;-68
2021/09/01 09:57:45;;;;;;;;;;;;;;;;;;4993613;28;20006;-67
2021/09/01 10:00:12;;;;;;;;;;;;;;;;;;4993993;28;20015;-68
2021/09/01 10:02:41;;;;;;;;;;;;;;;;;;4993161;28;20025;-68
2021/09/01 10:05:08;;;;;;;;;;;;;;;;;;4993058;28;20050;-67
2021/09/01 10:07:35;;;;;;;;;;;;;;;;;;4993273;28;20003;-68
2021/09/01 10:10:02;;;;;;;;;;;;;;;;;;4993206;28;20026;-68
2021/09/01 10:12:29;;;;;;;;;;;;;;;;;;4992787;28;20003;-67
2021/09/01 10:14:56;;;;;;;;;;;;;;;;;;4993186;28;20002;-69
2021/09/01 10:17:23;;;;;;;;;;;;;;;;;;4993424;28;20024;-69
2021/09/01 10:19:50;;;;;;;;;;;;;;;;;;4993275;28;20002;-69
2021/09/01 10:22:17;;;;;;;;;;;;;;;;;;4992930;28;20003;-69
2021/09/01 10:24:44;;;;;;;;;;;;;;;;;;4992911;28;20092;-69
2021/09/01 10:27:11;;;;;;;;;;;;;;;;;;4993065;28;20002;-68
2021/09/01 10:29:38;;;;;;;;;;;;;;;;;;4992948;28;20497;-68
2021/09/01 10:32:05;;;;;;;;;;;;;;;;;;4993133;28;20003;-69
2021/09/01 10:34:32;;;;;;;;;;;;;;;;;;4992692;28;20046;-68
2021/09/01 10:36:59;;;;;;;;;;;;;;;;;;4992732;28;20006;-69
2021/09/01 10:39:26;;;;;;;;;;;;;;;;;;4992948;28;20003;-68
2021/09/01 10:41:53;;;;;;;;;;;;;;;;;;4992613;28;20018;-69
2021/09/01 10:44:20;;;;;;;;;;;;;;;;;;4992729;28;20019;-68
2021/09/01 10:46:46;;;;;;;;;;;;;;;;;;4992853;28;20106;-68
2021/09/01 10:49:13;;;;;;;;;;;;;;;;;;4992759;28;20002;-68
2021/09/01 10:51:40;;;;;;;;;;;;;;;;;;4991989;28;20485;-69
2021/09/01 10:54:07;;;;;;;;;;;;;;;;;;4992795;28;20019;-69
2021/09/01 10:56:34;;;;;;;;;;;;;;;;;;4992688;28;20002;-68
2021/09/01 10:59:01;;;;;;;;;;;;;;;;;;4992960;28;20010;-69
2021/09/01 11:01:28;;;;;;;;;;;;;;;;;;4992727;28;20014;-68
2021/09/01 11:04:01;;;;;;;;;;;;;;;;;;4992900;28;20018;-68
2021/09/01 11:06:28;;;;;;;;;;;;;;;;;;4992489;28;20414;-68
2021/09/01 11:08:55;;;;;;;;;;;;;;;;;;4992581;28;20002;-68
2021/09/01 11:11:22;;;;;;;;;;;;;;;;;;4992650;28;20017;-68
2021/09/01 11:13:49;;;;;;;;;;;;;;;;;;4992969;28;20018;-67
2021/09/01 11:16:15;;;;;;;;;;;;;;;;;;4996460;28;20003;-67
2021/09/01 11:18:42;;;;;;;;;;;;;;;;;;4997004;28;20002;-67
2021/09/01 11:21:09;;;;;;;;;;;;;;;;;;4996515;28;20024;-68
2021/09/01 11:23:36;;;;;;;;;;;;;;;;;;4996285;28;20018;-67
2021/09/01 11:26:04;;;;;;;;;;;;;;;;;;4996021;28;20009;-68
2021/09/01 11:28:31;;;;;;;;;;;;;;;;;;4996512;28;20034;-67
2021/09/01 11:30:58;;;;;;;;;;;;;;;;;;4996978;28;20002;-67
2021/09/01 11:33:25;;;;;;;;;;;;;;;;;;5037484;23;20410;-67
2021/09/01 11:35:52;;;;;;;;;;;;;;;;;;5012401;28;19998;-67
2021/09/01 11:38:19;;;;;;;;;;;;;;;;;;5016515;28;19994;-67
2021/09/01 11:40:46;;;;;;;;;;;;;;;;;;5015592;28;20507;-68
2021/09/01 11:43:13;;;;;;;;;;;;;;;;;;5015485;28;20018;-67
2021/09/01 11:45:40;;;;;;;;;;;;;;;;;;5015105;28;20026;-68
2021/09/01 11:48:06;;;;;;;;;;;;;;;;;;5016341;28;20006;-67
2021/09/01 11:50:33;;;;;;;;;;;;;;;;;;5016204;28;20002;-66
2021/09/01 11:53:00;;;;;;;;;;;;;;;;;;5015680;28;20378;-68
2021/09/01 11:55:27;;;;;;;;;;;;;;;;;;5015265;28;20003;-68
2021/09/01 11:57:54;;;;;;;;;;;;;;;;;;5015240;28;20009;-69
2021/09/01 12:00:21;;;;;;;;;;;;;;;;;;5015872;28;20343;-67
2021/09/01 12:02:48;;;;;;;;;;;;;;;;;;5015822;28;20002;-67
2021/09/01 12:05:15;;;;;;;;;;;;;;;;;;5015526;28;20010;-67
2021/09/01 12:07:42;;;;;;;;;;;;;;;;;;5014869;28;20457;-67
2021/09/01 12:10:09;;;;;;;;;;;;;;;;;;5015678;28;20010;-70
2021/09/01 12:12:36;;;;;;;;;;;;;;;;;;5016078;28;20065;-67
2021/09/01 12:15:03;;;;;;;;;;;;;;;;;;5015627;28;20018;-67
2021/09/01 12:17:30;;;;;;;;;;;;;;;;;;5015501;28;20009;-67
2021/09/01 12:19:56;;;;;;;;;;;;;;;;;;5016834;28;20002;-68
2021/09/01 12:22:23;;;;;;;;;;;;;;;;;;5015392;28;20041;-67
2021/09/01 12:24:50;;;;;;;;;;;;;;;;;;5015851;28;20022;-67
2021/09/01 12:27:17;;;;;;;;;;;;;;;;;;5015802;28;20002;-68
2021/09/01 12:29:44;;;;;;;;;;;;;;;;;;5014561;28;20009;-67
2021/09/01 12:32:11;;;;;;;;;;;;;;;;;;5015411;28;20449;-68
2021/09/01 12:34:39;;;;;;;;;;;;;;;;;;5015637;28;20030;-67
2021/09/01 12:37:05;;;;;;;;;;;;;;;;;;5015459;28;20069;-67
2021/09/01 12:39:32;;;;;;;;;;;;;;;;;;5015463;28;20517;-67
2021/09/01 12:41:59;;;;;;;;;;;;;;;;;;5015198;28;20025;-67
2021/09/01 12:44:26;;;;;;;;;;;;;;;;;;5015022;28;20018;-67
2021/09/01 12:46:53;;;;;;;;;;;;;;;;;;5014163;28;20009;-69
2021/09/01 12:49:20;;;;;;;;;;;;;;;;;;5014733;28;20002;-68
2021/09/01 12:51:47;;;;;;;;;;;;;;;;;;5014261;28;20206;-67
2021/09/01 12:54:14;;;;;;;;;;;;;;;;;;5014736;28;20025;-68
2021/09/01 12:56:41;;;;;;;;;;;;;;;;;;5014132;28;20003;-67
2021/09/01 12:59:08;;;;;;;;;;;;;;;;;;5014445;28;20469;-68
2021/09/01 13:01:35;;;;;;;;;;;;;;;;;;5015329;28;20025;-67
2021/09/01 13:04:01;;;;;;;;;;;;;;;;;;5014585;28;20018;-68
2021/09/01 13:06:28;;;;;;;;;;;;;;;;;;5013857;28;20002;-67
2021/09/01 13:08:55;;;;;;;;;;;;;;;;;;5015464;28;20310;-67
2021/09/01 13:11:22;;;;;;;;;;;;;;;;;;5015419;28;20002;-67
2021/09/01 13:13:49;;;;;;;;;;;;;;;;;;5014307;28;20080;-67
2021/09/01 13:16:16;;;;;;;;;;;;;;;;;;5015117;28;20006;-67
2021/09/01 13:18:43;;;;;;;;;;;;;;;;;;5014571;28;20002;-67
2021/09/01 13:21:10;;;;;;;;;;;;;;;;;;5014767;28;20014;-67
2021/09/01 13:23:37;;;;;;;;;;;;;;;;;;5014228;28;20072;-67
2021/09/01 13:26:04;;;;;;;;;;;;;;;;;;5014247;28;20007;-68
2021/09/01 13:28:31;;;;;;;;;;;;;;;;;;5014743;28;20006;-67
2021/09/01 13:30:58;;;;;;;;;;;;;;;;;;5014933;28;20002;-67
2021/09/01 13:33:25;;;;;;;;;;;;;;;;;;5014543;28;20022;-67
2021/09/01 13:35:51;;;;;;;;;;;;;;;;;;5014658;28;20002;-67
2021/09/01 13:38:18;;;;;;;;;;;;;;;;;;5014340;28;20009;-68
2021/09/01 13:40:45;;;;;;;;;;;;;;;;;;5014474;28;20361;-67
2021/09/01 13:43:12;;;;;;;;;;;;;;;;;;5014728;28;20025;-68
2021/09/01 13:45:42;;;;;;;;;;;;;;;;;;5014390;28;20002;-67
2021/09/01 13:48:09;;;;;;;;;;;;;;;;;;5014800;28;20424;-67
2021/09/01 13:50:36;;;;;;;;;;;;;;;;;;5013608;28;20002;-67
2021/09/01 13:53:03;;;;;;;;;;;;;;;;;;5013335;28;20013;-67
2021/09/01 13:55:30;;;;;;;;;;;;;;;;;;5013460;28;20369;-67
2021/09/01 13:57:57;;;;;;;;;;;;;;;;;;5013550;28;20013;-68
2021/09/01 14:00:31;;;;;;;;;;;;;;;;;;5013489;28;20006;-67
2021/09/01 14:02:57;;;;;;;;;;;;;;;;;;5013551;28;20018;-67
2021/09/01 14:05:24;;;;;;;;;;;;;;;;;;5013343;28;20450;-67
2021/09/01 14:07:51;;;;;;;;;;;;;;;;;;5013648;28;20006;-67
2021/09/01 14:10:18;;;;;;;;;;;;;;;;;;5013294;28;20022;-67
2021/09/01 14:12:46;;;;;;;;;;;;;;;;;;5014358;28;20009;-67
2021/09/01 14:15:13;;;;;;;;;;;;;;;;;;5015418;28;20019;-68
2021/09/01 14:17:40;;;;;;;;;;;;;;;;;;5016038;28;20002;-67
2021/09/01 14:20:07;;;;;;;;;;;;;;;;;;5016448;28;20010;-67
2021/09/01 14:22:34;;;;;;;;;;;;;;;;;;5017686;28;20018;-67
2021/09/01 14:25:01;;;;;;;;;;;;;;;;;;5013185;28;20497;-67
2021/09/01 14:27:28;;;;;;;;;;;;;;;;;;5013255;28;20009;-67
2021/09/01 14:29:54;;;;;;;;;;;;;;;;;;5013241;28;20002;-67
2021/09/01 14:32:21;;;;;;;;;;;;;;;;;;5012737;28;20002;-67
2021/09/01 14:34:48;;;;;;;;;;;;;;;;;;5012797;28;20022;-67
2021/09/01 14:37:15;;;;;;;;;;;;;;;;;;5012729;28;20375;-67
2021/09/01 14:39:42;;;;;;;;;;;;;;;;;;5013552;28;20009;-67
2021/09/01 14:42:09;;;;;;;;;;;;;;;;;;5012937;28;20018;-67
2021/09/01 14:44:36;;;;;;;;;;;;;;;;;;5013147;28;20113;-67
2021/09/01 14:47:04;;;;;;;;;;;;;;;;;;5012755;28;20457;-67
2021/09/01 14:49:31;;;;;;;;;;;;;;;;;;5012911;28;20013;-67
2021/09/01 14:51:58;;;;;;;;;;;;;;;;;;5012846;28;20002;-68
2021/09/01 14:54:25;;;;;;;;;;;;;;;;;;5013026;28;20025;-67
2021/09/01 14:56:52;;;;;;;;;;;;;;;;;;5013085;28;20006;-67
2021/09/01 14:59:18;;;;;;;;;;;;;;;;;;5012971;28;20393;-67
2021/09/01 15:01:45;;;;;;;;;;;;;;;;;;5012816;28;20014;-67
2021/09/01 15:04:12;;;;;;;;;;;;;;;;;;5013238;28;20018;-67
2021/09/01 15:06:39;;;;;;;;;;;;;;;;;;5013073;28;20362;-67
2021/09/01 15:09:06;;;;;;;;;;;;;;;;;;5013329;28;20002;-67
2021/09/01 15:11:33;;;;;;;;;;;;;;;;;;5013224;28;20002;-67
2021/09/01 15:14:00;;;;;;;;;;;;;;;;;;5012816;28;20528;-67
2021/09/01 15:16:27;;;;;;;;;;;;;;;;;;5013022;28;20012;-67
2021/09/01 15:18:54;;;;;;;;;;;;;;;;;;5013398;28;20002;-67
2021/09/01 15:21:21;;;;;;;;;;;;;;;;;;5012713;28;20009;-67
2021/09/01 15:23:48;;;;;;;;;;;;;;;;;;5013096;28;20021;-67
2021/09/01 15:26:14;;;;;;;;;;;;;;;;;;5012651;28;20400;-67
2021/09/01 15:28:42;;;;;;;;;;;;;;;;;;5012990;28;20002;-67
2021/09/01 15:31:09;;;;;;;;;;;;;;;;;;5012915;28;20001;-67
2021/09/01 15:33:36;;;;;;;;;;;;;;;;;;5012731;28;20515;-67
2021/09/01 15:36:03;;;;;;;;;;;;;;;;;;5013182;28;20002;-68
2021/09/01 15:38:29;;;;;;;;;;;;;;;;;;5012528;28;20002;-67
2021/09/01 15:40:56;;;;;;;;;;;;;;;;;;5012573;28;20406;-67
2021/09/01 15:43:26;;;;;;;;;;;;;;;;;;5012698;28;20022;-67
2021/09/01 15:45:53;;;;;;;;;;;;;;;;;;5012960;28;20056;-67
2021/09/01 15:48:20;;;;;;;;;;;;;;;;;;5012309;28;20385;-67
2021/09/01 15:50:47;;;;;;;;;;;;;;;;;;5012650;28;20010;-67
2021/09/01 15:53:15;;;;;;;;;;;;;;;;;;5012127;28;20018;-67
2021/09/01 15:55:42;;;;;;;;;;;;;;;;;;5012164;28;20103;-67
2021/09/01 15:58:09;;;;;;;;;;;;;;;;;;5012347;28;20002;-67
2021/09/01 16:00:36;;;;;;;;;;;;;;;;;;5012217;28;20002;-67
2021/09/01 16:03:03;;;;;;;;;;;;;;;;;;5015882;28;20021;-67
2021/09/01 16:05:30;;;;;;;;;;;;;;;;;;5015925;28;20009;-67
2021/09/01 16:07:57;;;;;;;;;;;;;;;;;;5016098;28;20002;-67
2021/09/01 16:10:23;;;;;;;;;;;;;;;;;;5015306;28;20009;-67
2021/09/01 16:12:50;;;;;;;;;;;;;;;;;;5015625;28;20377;-67
2021/09/01 16:15:17;;;;;;;;;;;;;;;;;;5015862;28;20009;-68
2021/09/01 16:17:44;;;;;;;;;;;;;;;;;;5015603;28;20001;-67
2021/09/01 16:20:11;;;;;;;;;;;;;;;;;;5015257;28;20009;-67
2021/09/01 16:22:38;;;;;;;;;;;;;;;;;;5015615;28;20022;-67
2021/09/01 16:25:05;;;;;;;;;;;;;;;;;;5015057;28;20025;-67
2021/09/01 16:27:32;;;;;;;;;;;;;;;;;;5015226;28;20002;-67
2021/09/01 16:29:59;;;;;;;;;;;;;;;;;;5015352;28;20378;-67
2021/09/01 16:32:26;;;;;;;;;;;;;;;;;;5015006;28;20003;-67
2021/09/01 16:34:53;;;;;;;;;;;;;;;;;;5014921;28;20022;-66
2021/09/01 16:37:20;;;;;;;;;;;;;;;;;;5015070;28;20501;-67
2021/09/01 16:39:47;;;;;;;;;;;;;;;;;;5015088;28;20002;-67
2021/09/01 16:42:13;;;;;;;;;;;;;;;;;;5015076;28;20133;-67